createdAt,value
2023-02-14T00:00:37.739Z,7.30
2023-02-14T00:03:24.258Z,7.31
2023-02-14T00:05:50.649Z,7.27
2023-02-14T00:08:17.075Z,7.27
2023-02-14T00:10:43.281Z,7.27
2023-02-14T00:13:10.079Z,7.27
2023-02-14T00:15:36.298Z,7.26
2023-02-14T00:18:02.857Z,7.25
2023-02-14T00:20:29.076Z,7.26
2023-02-14T00:22:55.546Z,7.26
2023-02-14T00:25:21.975Z,7.23
2023-02-14T00:27:49.770Z,7.27
2023-02-14T00:30:16.163Z,7.26
2023-02-14T00:32:42.721Z,7.21
2023-02-14T00:35:10.078Z,7.15
2023-02-14T00:37:37.592Z,7.23
2023-02-14T00:40:05.967Z,7.20
2023-02-14T00:42:32.471Z,7.24
2023-02-14T00:44:58.635Z,7.26
2023-02-14T00:47:25.408Z,7.26
2023-02-14T00:49:51.659Z,7.19
2023-02-14T00:52:18.155Z,7.24
2023-02-14T00:54:44.318Z,7.29
2023-02-14T00:57:11.072Z,7.30
2023-02-14T00:59:37.363Z,7.30
2023-02-14T01:02:03.950Z,7.26
2023-02-14T01:04:30.391Z,7.22
2023-02-14T01:06:56.980Z,7.21
2023-02-14T01:09:23.219Z,7.28
2023-02-14T01:11:49.699Z,7.32
2023-02-14T01:14:15.833Z,7.39
2023-02-14T01:16:42.498Z,7.34
2023-02-14T01:19:08.762Z,7.43
2023-02-14T01:21:35.598Z,7.47
2023-02-14T01:24:05.957Z,7.47
2023-02-14T01:26:34.070Z,7.50
2023-02-14T01:29:01.471Z,7.45
2023-02-14T01:31:31.439Z,7.47
2023-02-14T01:33:58.627Z,7.47
2023-02-14T01:36:29.185Z,7.40
2023-02-14T01:39:02.338Z,7.50
2023-02-14T01:41:31.630Z,7.37
2023-02-14T01:44:07.029Z,7.48
2023-02-14T01:46:36.523Z,7.50
2023-02-14T01:49:10.335Z,7.54
2023-02-14T01:51:42.322Z,7.53
2023-02-14T01:54:09.673Z,7.55
2023-02-14T01:56:43.302Z,7.59
2023-02-14T01:59:15.116Z,7.44
2023-02-14T02:01:44.280Z,7.40
2023-02-14T02:04:17.005Z,7.46
2023-02-14T02:06:50.077Z,7.49
2023-02-14T02:09:38.321Z,7.48
2023-02-14T02:12:05.246Z,7.45
2023-02-14T02:14:31.975Z,7.44
2023-02-14T02:17:09.508Z,7.45
2023-02-14T02:20:00.345Z,7.49
2023-02-14T02:22:29.843Z,7.38
2023-02-14T02:25:18.299Z,7.40
2023-02-14T02:28:02.881Z,7.34
2023-02-14T02:31:10.452Z,7.35
2023-02-14T02:33:55.760Z,7.36
2023-02-14T02:36:40.234Z,7.42
2023-02-14T02:39:17.712Z,7.42
2023-02-14T02:41:55.187Z,7.38
2023-02-14T02:44:53.282Z,7.45
2023-02-14T02:47:36.949Z,7.41
2023-02-14T02:50:26.544Z,7.42
2023-02-14T02:53:07.040Z,7.34
2023-02-14T02:56:03.770Z,7.19
2023-02-14T02:58:55.617Z,7.27
2023-02-14T03:01:51.662Z,7.28
2023-02-14T03:04:38.783Z,7.09
2023-02-14T03:07:25.703Z,7.22
2023-02-14T03:09:56.843Z,7.16
2023-02-14T03:12:32.989Z,7.14
2023-02-14T03:15:29.286Z,7.19
2023-02-14T03:18:14.439Z,7.19
2023-02-14T03:20:53.353Z,7.14
2023-02-14T03:23:28.711Z,7.14
2023-02-14T03:26:16.254Z,7.11
2023-02-14T03:29:11.378Z,7.16
2023-02-14T03:31:59.796Z,6.86
2023-02-14T03:34:51.733Z,6.94
2023-02-14T03:37:53.320Z,7.03
2023-02-14T03:40:29.015Z,7.07
2023-02-14T03:42:59.929Z,7.11
2023-02-14T03:45:32.349Z,7.01
2023-02-14T03:48:05.688Z,7.07
2023-02-14T03:50:35.590Z,7.07
2023-02-14T03:53:06.061Z,7.11
2023-02-14T03:56:01.013Z,7.07
2023-02-14T03:58:34.199Z,7.04
2023-02-14T04:01:35.696Z,7.01
2023-02-14T04:04:05.075Z,7.09
2023-02-14T04:06:31.616Z,7.11
2023-02-14T04:08:58.159Z,7.10
2023-02-14T04:11:24.829Z,7.08
2023-02-14T04:13:51.008Z,7.05
2023-02-14T04:16:17.544Z,7.02
2023-02-14T04:19:02.380Z,7.07
2023-02-14T04:21:28.880Z,7.05
2023-02-14T04:23:55.032Z,7.11
2023-02-14T04:26:21.623Z,7.13
2023-02-14T04:28:50.156Z,7.16
2023-02-14T04:31:16.774Z,7.09
2023-02-14T04:33:45.239Z,7.04
2023-02-14T04:36:11.701Z,6.93
2023-02-14T04:38:37.897Z,6.73
2023-02-14T04:41:04.601Z,6.65
2023-02-14T04:43:30.921Z,6.78
2023-02-14T04:45:57.339Z,6.93
2023-02-14T04:48:23.442Z,6.85
2023-02-14T04:50:54.815Z,6.97
2023-02-14T04:53:21.524Z,6.94
2023-02-14T04:55:49.188Z,6.87
2023-02-14T04:58:15.477Z,6.91
2023-02-14T05:00:41.993Z,6.94
2023-02-14T05:03:08.194Z,6.97
2023-02-14T05:05:34.942Z,7.00
2023-02-14T05:08:01.078Z,6.94
2023-02-14T05:10:28.444Z,7.02
2023-02-14T05:12:54.595Z,7.01
2023-02-14T05:15:20.998Z,6.93
2023-02-14T05:17:47.192Z,7.01
2023-02-14T05:20:13.725Z,7.04
2023-02-14T05:22:39.881Z,6.88
2023-02-14T05:25:06.625Z,6.91
2023-02-14T05:27:32.824Z,6.78
2023-02-14T05:29:59.349Z,6.82
2023-02-14T05:32:25.515Z,6.87
2023-02-14T05:34:52.230Z,6.93
2023-02-14T05:37:18.598Z,6.97
2023-02-14T05:39:45.091Z,6.93
2023-02-14T05:42:11.463Z,6.93
2023-02-14T05:44:37.936Z,6.95
2023-02-14T05:47:04.361Z,7.03
2023-02-14T05:49:30.832Z,7.09
2023-02-14T05:51:56.985Z,7.12
2023-02-14T05:54:23.524Z,7.14
2023-02-14T05:56:49.708Z,7.14
2023-02-14T05:59:16.328Z,7.11
2023-02-14T06:01:42.811Z,7.08
2023-02-14T06:04:09.323Z,7.06
2023-02-14T06:06:36.741Z,7.14
2023-02-14T06:09:03.478Z,7.06
2023-02-14T06:11:30.074Z,7.10
2023-02-14T06:13:56.747Z,7.08
2023-02-14T06:16:23.012Z,7.07
2023-02-14T06:18:49.776Z,7.05
2023-02-14T06:21:15.954Z,7.02
2023-02-14T06:23:42.650Z,6.89
2023-02-14T06:26:08.844Z,7.03
2023-02-14T06:28:35.471Z,7.05
2023-02-14T06:31:02.448Z,6.83
2023-02-14T06:33:29.466Z,6.77
2023-02-14T06:35:55.607Z,6.71
2023-02-14T06:38:22.226Z,6.66
2023-02-14T06:40:48.375Z,6.69
2023-02-14T06:43:14.838Z,6.75
2023-02-14T06:45:42.957Z,6.86
2023-02-14T06:48:09.520Z,6.97
2023-02-14T06:50:35.657Z,7.07
2023-02-14T06:53:02.051Z,7.14
2023-02-14T06:55:28.247Z,7.19
2023-02-14T06:57:55.187Z,7.29
2023-02-14T07:00:21.664Z,7.21
2023-02-14T07:02:48.378Z,7.28
2023-02-14T07:05:18.109Z,7.39
2023-02-14T07:07:44.853Z,7.46
2023-02-14T07:10:11.745Z,7.41
2023-02-14T07:12:39.066Z,7.51
2023-02-14T07:15:12.496Z,7.49
2023-02-14T07:17:39.461Z,7.57
2023-02-14T07:20:07.371Z,7.59
2023-02-14T07:22:34.440Z,7.62
2023-02-14T07:25:00.867Z,7.75
2023-02-14T07:27:27.548Z,7.73
2023-02-14T07:29:53.665Z,7.59
2023-02-14T07:32:20.309Z,7.47
2023-02-14T07:34:47.376Z,7.53
2023-02-14T07:37:14.176Z,7.51
2023-02-14T07:39:40.363Z,7.54
2023-02-14T07:42:07.769Z,7.60
2023-02-14T07:44:34.277Z,7.66
2023-02-14T07:47:00.777Z,7.66
2023-02-14T07:49:26.931Z,7.87
2023-02-14T07:51:53.788Z,7.95
2023-02-14T07:54:20.411Z,7.94
2023-02-14T07:56:46.874Z,7.83
2023-02-14T07:59:13.247Z,7.85
2023-02-14T08:01:39.919Z,7.71
2023-02-14T08:04:06.103Z,7.50
2023-02-14T08:06:32.686Z,7.70
2023-02-14T08:08:58.969Z,7.65
2023-02-14T08:11:44.696Z,7.66
2023-02-14T08:14:11.185Z,7.98
2023-02-14T08:16:39.022Z,8.08
2023-02-14T08:19:05.586Z,8.23
2023-02-14T08:21:32.740Z,8.37
2023-02-14T08:23:59.093Z,8.50
2023-02-14T08:26:25.847Z,8.43
2023-02-14T08:28:52.357Z,8.34
2023-02-14T08:31:36.762Z,8.29
2023-02-14T08:34:04.809Z,8.43
2023-02-14T08:36:31.573Z,8.39
2023-02-14T08:38:57.976Z,8.20
2023-02-14T08:41:24.632Z,8.34
2023-02-14T08:43:50.930Z,8.44
2023-02-14T08:46:17.524Z,8.43
2023-02-14T08:48:43.890Z,8.26
2023-02-14T08:51:13.338Z,8.22
2023-02-14T08:53:40.334Z,8.33
2023-02-14T08:56:11.916Z,8.43
2023-02-14T08:58:39.281Z,8.30
2023-02-14T09:01:14.887Z,8.26
2023-02-14T09:03:42.415Z,8.52
2023-02-14T09:06:11.974Z,8.75
2023-02-14T09:08:39.106Z,8.94
2023-02-14T09:11:10.930Z,8.78
2023-02-14T09:13:37.311Z,8.94
2023-02-14T09:16:05.527Z,9.13
2023-02-14T09:18:32.123Z,9.10
2023-02-14T09:20:58.806Z,9.23
2023-02-14T09:23:25.350Z,9.39
2023-02-14T09:26:00.475Z,9.39
2023-02-14T09:28:27.145Z,9.44
2023-02-14T09:30:54.606Z,9.49
2023-02-14T09:33:21.665Z,9.48
2023-02-14T09:35:48.383Z,9.41
2023-02-14T09:38:20.433Z,9.43
2023-02-14T09:40:48.033Z,9.45
2023-02-14T09:43:41.603Z,9.65
2023-02-14T09:46:13.407Z,9.74
2023-02-14T09:48:45.596Z,9.50
2023-02-14T09:51:19.496Z,9.69
2023-02-14T09:54:00.958Z,9.42
2023-02-14T09:56:51.696Z,9.74
2023-02-14T09:59:35.066Z,9.81
2023-02-14T10:02:40.200Z,9.83
2023-02-14T10:05:28.977Z,9.50
2023-02-14T10:08:20.119Z,9.74
2023-02-14T10:11:03.356Z,9.82
2023-02-14T10:13:51.033Z,9.92
2023-02-14T10:16:26.845Z,9.81
2023-02-14T10:19:21.553Z,9.91
2023-02-14T10:21:59.851Z,10.02
2023-02-14T10:24:39.495Z,9.91
2023-02-14T10:27:22.089Z,9.92
2023-02-14T10:29:48.663Z,10.13
2023-02-14T10:32:20.157Z,10.20
2023-02-14T10:34:49.299Z,10.04
2023-02-14T10:37:46.201Z,10.07
2023-02-14T10:40:31.463Z,10.15
2023-02-14T10:43:26.584Z,10.25
2023-02-14T10:46:18.438Z,10.37
2023-02-14T10:49:15.735Z,10.30
2023-02-14T10:52:00.048Z,10.37
2023-02-14T10:54:35.715Z,10.23
2023-02-14T10:57:11.105Z,10.20
2023-02-14T10:59:43.464Z,10.12
2023-02-14T11:02:15.365Z,10.22
2023-02-14T11:04:43.272Z,10.24
2023-02-14T11:07:17.832Z,10.24
2023-02-14T11:09:44.276Z,10.15
2023-02-14T11:12:10.934Z,10.19
2023-02-14T11:14:39.337Z,9.88
2023-02-14T11:17:29.828Z,9.72
2023-02-14T11:20:05.669Z,9.61
2023-02-14T11:22:33.819Z,9.91
2023-02-14T11:25:28.037Z,10.01
2023-02-14T11:28:06.465Z,10.23
2023-02-14T11:30:37.895Z,9.94
2023-02-14T11:33:06.374Z,10.15
2023-02-14T11:35:36.371Z,10.13
2023-02-14T11:38:06.350Z,10.28
2023-02-14T11:40:35.677Z,10.21
2023-02-14T11:43:14.848Z,10.29
2023-02-14T11:45:43.888Z,10.09
2023-02-14T11:48:19.938Z,10.08
2023-02-14T11:50:56.248Z,9.99
2023-02-14T11:53:36.977Z,9.82
2023-02-14T11:56:03.339Z,9.86
2023-02-14T11:58:58.278Z,9.86
2023-02-14T12:01:29.088Z,9.89
2023-02-14T12:04:01.048Z,10.04
2023-02-14T12:06:30.451Z,10.16
2023-02-14T12:09:40.258Z,10.29
2023-02-14T12:12:19.442Z,9.99
2023-02-14T12:14:47.656Z,9.94
2023-02-14T12:17:25.616Z,10.11
2023-02-14T12:20:08.123Z,10.34
2023-02-14T12:22:41.137Z,10.51
2023-02-14T12:25:26.530Z,10.61
2023-02-14T12:28:00.705Z,10.68
2023-02-14T12:30:30.635Z,10.65
2023-02-14T12:32:57.249Z,10.79
2023-02-14T12:36:01.449Z,10.71
2023-02-14T12:38:33.537Z,10.55
2023-02-14T12:41:24.847Z,10.24
2023-02-14T12:44:02.840Z,10.49
2023-02-14T12:46:44.862Z,10.53
2023-02-14T12:49:27.642Z,10.57
2023-02-14T12:52:10.122Z,10.70
2023-02-14T12:54:39.547Z,10.58
2023-02-14T12:57:38.916Z,10.52
2023-02-14T13:00:20.146Z,10.62
2023-02-14T13:03:05.270Z,10.60
2023-02-14T13:05:57.399Z,10.56
2023-02-14T13:08:38.018Z,10.60
2023-02-14T13:11:17.394Z,10.45
2023-02-14T13:13:56.412Z,10.54
2023-02-14T13:16:33.526Z,10.37
2023-02-14T13:19:46.668Z,10.46
2023-02-14T13:22:17.364Z,10.46
2023-02-14T13:24:50.055Z,10.54
2023-02-14T13:27:25.241Z,10.40
2023-02-14T13:30:11.831Z,10.34
2023-02-14T13:32:41.483Z,10.35
2023-02-14T13:35:15.926Z,10.40
2023-02-14T13:37:52.835Z,10.44
2023-02-14T13:40:25.611Z,10.40
2023-02-14T13:42:57.858Z,10.38
2023-02-14T13:45:39.188Z,10.46
2023-02-14T13:48:11.894Z,10.22
2023-02-14T13:50:48.355Z,10.04
2023-02-14T13:53:33.257Z,10.02
2023-02-14T13:56:02.488Z,10.21
2023-02-14T13:58:29.554Z,10.18
2023-02-14T14:00:56.721Z,10.25
2023-02-14T14:03:29.080Z,10.14
2023-02-14T14:06:10.405Z,10.25
2023-02-14T14:08:48.497Z,9.84
2023-02-14T14:11:21.215Z,9.81
2023-02-14T14:13:54.510Z,9.81
2023-02-14T14:16:27.205Z,9.62
2023-02-14T14:19:08.837Z,9.51
2023-02-14T14:21:44.113Z,9.44
2023-02-14T14:24:28.391Z,9.38
2023-02-14T14:27:19.120Z,9.50
2023-02-14T14:29:48.597Z,9.38
2023-02-14T14:32:24.220Z,9.28
2023-02-14T14:34:55.535Z,9.41
2023-02-14T14:37:25.330Z,9.33
2023-02-14T14:39:54.498Z,9.06
2023-02-14T14:42:24.691Z,9.19
2023-02-14T14:44:55.447Z,9.14
2023-02-14T14:47:28.172Z,9.02
2023-02-14T14:50:03.773Z,8.89
2023-02-14T14:52:37.690Z,8.84
2023-02-14T14:55:07.079Z,8.78
2023-02-14T14:57:38.334Z,8.72
2023-02-14T15:00:32.739Z,8.85
2023-02-14T15:03:11.806Z,8.99
2023-02-14T15:05:41.306Z,9.00
2023-02-14T15:08:22.348Z,9.05
2023-02-14T15:10:56.459Z,9.16
2023-02-14T15:13:50.850Z,9.14
2023-02-14T15:16:22.871Z,8.96
2023-02-14T15:18:52.778Z,9.05
2023-02-14T15:21:19.666Z,9.12
2023-02-14T15:23:47.176Z,9.11
2023-02-14T15:26:22.169Z,9.12
2023-02-14T15:29:01.446Z,9.14
2023-02-14T15:31:32.921Z,9.12
2023-02-14T15:34:02.238Z,9.13
2023-02-14T15:36:30.715Z,9.14
2023-02-14T15:39:00.145Z,9.12
2023-02-14T15:41:27.169Z,9.05
2023-02-14T15:43:56.336Z,9.01
2023-02-14T15:46:34.274Z,9.01
2023-02-14T15:49:07.864Z,9.03
2023-02-14T15:51:35.713Z,9.11
2023-02-14T15:54:07.011Z,9.14
2023-02-14T15:56:41.764Z,9.03
2023-02-14T15:59:18.740Z,8.96
2023-02-14T16:01:51.893Z,8.95
2023-02-14T16:04:27.291Z,8.92
2023-02-14T16:07:22.806Z,8.87
2023-02-14T16:10:10.939Z,8.83
2023-02-14T16:12:39.731Z,8.74
2023-02-14T16:15:21.381Z,8.74
2023-02-14T16:17:47.958Z,8.63
2023-02-14T16:20:40.520Z,8.60
2023-02-14T16:23:14.598Z,8.53
2023-02-14T16:25:42.048Z,8.38
2023-02-14T16:28:08.833Z,8.28
2023-02-14T16:30:37.503Z,8.13
2023-02-14T16:33:25.970Z,8.20
2023-02-14T16:35:53.914Z,8.19
2023-02-14T16:38:21.753Z,8.10
2023-02-14T16:40:53.871Z,8.07
2023-02-14T16:43:21.214Z,8.07
2023-02-14T16:45:48.457Z,7.94
2023-02-14T16:48:15.526Z,7.80
2023-02-14T16:50:42.820Z,7.79
2023-02-14T16:53:25.496Z,7.71
2023-02-14T16:55:54.055Z,7.66
2023-02-14T16:58:25.908Z,7.49
2023-02-14T17:00:52.669Z,7.33
2023-02-14T17:03:19.349Z,7.14
2023-02-14T17:05:46.437Z,6.97
2023-02-14T17:08:14.858Z,6.80
2023-02-14T17:10:45.829Z,6.79
2023-02-14T17:13:14.657Z,6.68
2023-02-14T17:15:42.212Z,6.70
2023-02-14T17:18:12.780Z,6.68
2023-02-14T17:20:39.876Z,6.96
2023-02-14T17:23:06.730Z,6.86
2023-02-14T17:25:34.467Z,6.95
2023-02-14T17:28:00.839Z,7.00
2023-02-14T17:30:27.981Z,6.87
2023-02-14T17:32:54.596Z,6.95
2023-02-14T17:35:21.592Z,6.74
2023-02-14T17:37:48.829Z,6.50
2023-02-14T17:40:15.636Z,6.19
2023-02-14T17:42:42.492Z,6.17
2023-02-14T17:45:11.094Z,6.44
2023-02-14T17:47:39.084Z,6.05
2023-02-14T17:50:06.658Z,6.33
2023-02-14T17:52:33.839Z,6.61
2023-02-14T17:55:01.307Z,6.32
2023-02-14T17:57:28.397Z,6.19
2023-02-14T17:59:55.095Z,6.33
2023-02-14T18:02:21.379Z,6.47
2023-02-14T18:04:48.227Z,6.37
2023-02-14T18:07:15.241Z,6.40
2023-02-14T18:09:42.177Z,6.35
2023-02-14T18:12:14.380Z,6.42
2023-02-14T18:14:42.419Z,6.38
2023-02-14T18:17:10.933Z,6.34
2023-02-14T18:19:38.117Z,6.07
2023-02-14T18:22:04.900Z,5.66
2023-02-14T18:24:31.761Z,5.38
2023-02-14T18:26:58.475Z,5.58
2023-02-14T18:29:25.110Z,5.32
2023-02-14T18:31:51.863Z,5.18
2023-02-14T18:34:18.651Z,5.00
2023-02-14T18:36:45.159Z,4.83
2023-02-14T18:39:12.036Z,5.19
2023-02-14T18:41:39.217Z,5.03
2023-02-14T18:44:06.654Z,5.00
2023-02-14T18:46:34.994Z,5.04
2023-02-14T18:49:05.621Z,5.12
2023-02-14T18:51:35.054Z,4.74
2023-02-14T18:54:04.244Z,4.60
2023-02-14T18:56:35.026Z,4.91
2023-02-14T18:59:05.312Z,4.71
2023-02-14T19:01:36.120Z,4.76
2023-02-14T19:04:06.133Z,4.65
2023-02-14T19:06:33.566Z,4.67
2023-02-14T19:09:01.821Z,4.71
2023-02-14T19:11:33.870Z,4.39
2023-02-14T19:14:02.322Z,4.46
2023-02-14T19:16:32.502Z,4.54
2023-02-14T19:19:02.074Z,4.33
2023-02-14T19:21:34.118Z,4.19
2023-02-14T19:24:02.701Z,4.29
2023-02-14T19:26:36.607Z,4.11
2023-02-14T19:29:07.122Z,4.23
2023-02-14T19:31:35.825Z,4.02
2023-02-14T19:34:05.706Z,4.07
2023-02-14T19:36:34.749Z,4.04
2023-02-14T19:39:02.451Z,4.43
2023-02-14T19:41:31.159Z,4.33
2023-02-14T19:44:00.062Z,4.08
2023-02-14T19:46:28.276Z,4.04
2023-02-14T19:48:58.332Z,3.96
2023-02-14T19:51:27.322Z,3.81
2023-02-14T19:53:55.358Z,3.78
2023-02-14T19:56:26.243Z,3.67
2023-02-14T19:58:55.605Z,3.66
2023-02-14T20:01:34.236Z,3.92
2023-02-14T20:04:02.028Z,3.65
2023-02-14T20:06:31.428Z,3.83
2023-02-14T20:08:58.422Z,4.06
2023-02-14T20:11:34.880Z,4.05
2023-02-14T20:14:02.881Z,4.14
2023-02-14T20:16:32.531Z,3.92
2023-02-14T20:19:05.091Z,3.66
2023-02-14T20:21:31.905Z,3.59
2023-02-14T20:24:03.666Z,3.48
2023-02-14T20:26:32.372Z,3.64
2023-02-14T20:29:04.424Z,3.55
2023-02-14T20:31:32.811Z,3.82
2023-02-14T20:34:00.012Z,3.84
2023-02-14T20:36:26.965Z,3.80
2023-02-14T20:39:01.870Z,3.72
2023-02-14T20:41:29.202Z,3.86
2023-02-14T20:44:06.963Z,3.58
2023-02-14T20:46:34.359Z,3.96
2023-02-14T20:49:01.339Z,3.73
2023-02-14T20:51:28.294Z,4.07
2023-02-14T20:53:55.187Z,4.17
2023-02-14T20:56:25.324Z,4.20
2023-02-14T20:58:52.115Z,3.86
2023-02-14T21:01:21.255Z,3.61
2023-02-14T21:03:50.192Z,3.60
2023-02-14T21:06:25.553Z,3.71
2023-02-14T21:08:52.921Z,3.61
2023-02-14T21:11:22.022Z,3.68
2023-02-14T21:13:49.456Z,3.79
2023-02-14T21:16:19.127Z,3.54
2023-02-14T21:18:51.795Z,3.73
2023-02-14T21:21:20.337Z,3.84
2023-02-14T21:23:49.266Z,3.79
2023-02-14T21:26:16.295Z,3.89
2023-02-14T21:28:43.472Z,3.49
2023-02-14T21:31:12.427Z,3.66
2023-02-14T21:33:42.693Z,3.68
2023-02-14T21:36:14.403Z,3.83
2023-02-14T21:38:41.809Z,3.67
2023-02-14T21:41:13.370Z,3.39
2023-02-14T21:43:42.289Z,3.64
2023-02-14T21:46:17.435Z,3.43
2023-02-14T21:49:03.902Z,3.25
2023-02-14T21:51:31.682Z,2.97
2023-02-14T21:53:59.281Z,2.87
2023-02-14T21:56:29.574Z,2.98
2023-02-14T21:58:58.180Z,3.31
2023-02-14T22:01:32.537Z,3.25
2023-02-14T22:04:00.140Z,3.53
2023-02-14T22:06:27.444Z,3.65
2023-02-14T22:08:58.347Z,3.44
2023-02-14T22:11:27.452Z,3.49
2023-02-14T22:13:55.345Z,3.10
2023-02-14T22:16:23.138Z,3.28
2023-02-14T22:18:50.213Z,3.50
2023-02-14T22:21:22.680Z,3.49
2023-02-14T22:23:49.954Z,3.53
2023-02-14T22:26:24.866Z,3.55
2023-02-14T22:28:56.302Z,3.58
2023-02-14T22:31:24.151Z,3.54
2023-02-14T22:33:51.130Z,3.31
2023-02-14T22:36:17.467Z,3.39
2023-02-14T22:38:44.333Z,3.35
2023-02-14T22:41:16.222Z,3.54
2023-02-14T22:43:43.798Z,3.53
2023-02-14T22:46:19.051Z,3.55
2023-02-14T22:48:47.742Z,3.56
2023-02-14T22:51:30.739Z,3.38
2023-02-14T22:54:07.148Z,3.45
2023-02-14T22:56:38.047Z,3.45
2023-02-14T22:59:07.684Z,3.32
2023-02-14T23:01:35.044Z,3.22
2023-02-14T23:04:03.494Z,3.12
2023-02-14T23:06:32.719Z,2.77
2023-02-14T23:09:00.214Z,2.54
2023-02-14T23:11:29.388Z,2.79
2023-02-14T23:14:15.896Z,2.78
2023-02-14T23:17:01.734Z,2.96
2023-02-14T23:19:49.303Z,2.99
2023-02-14T23:22:20.912Z,3.02
2023-02-14T23:24:49.267Z,3.05
2023-02-14T23:27:18.351Z,3.05
2023-02-14T23:29:45.215Z,2.84
2023-02-14T23:32:12.352Z,2.45
2023-02-14T23:34:41.506Z,2.37
2023-02-14T23:37:09.095Z,2.26
2023-02-14T23:39:36.902Z,2.58
2023-02-14T23:42:08.130Z,2.74
2023-02-14T23:44:35.065Z,2.92
2023-02-14T23:47:03.793Z,3.01
2023-02-14T23:49:32.723Z,2.95
2023-02-14T23:51:59.880Z,2.99
2023-02-14T23:54:27.298Z,3.01
2023-02-14T23:56:54.295Z,3.07
2023-02-14T23:59:21.442Z,3.12
